Time,TemperatureF,DewpointF,PressureIn,WindDirection,WindDirectionDegrees,WindSpeedMPH,WindSpeedGustMPH,Humidity,HourlyPrecipIn,Conditions,Clouds,dailyrainin,SoftwareType,DateUTC
2013-04-02 00:09:00,67.9,65.0,30.01,West,276,1.0,1.0,90,0.00,,,0.32,weatherlink.com 1.10,2013-04-02 04:09:00,
2013-04-02 00:24:00,67.8,65.0,30.01,WNW,301,1.0,3.0,89,0.00,,,0.32,weatherlink.com 1.10,2013-04-02 04:24:00,
2013-04-02 00:39:00,68.0,65.0,30.01,WNW,298,0.0,3.0,89,0.00,,,0.32,weatherlink.com 1.10,2013-04-02 04:39:00,
2013-04-02 00:54:00,67.1,64.0,30.01,WNW,297,0.0,0.0,89,0.00,,,0.32,weatherlink.com 1.10,2013-04-02 04:54:00,
2013-04-02 01:10:00,66.2,63.0,30.01,ESE,116,0.0,0.0,90,0.00,,,0.32,weatherlink.com 1.10,2013-04-02 05:10:00,
2013-04-02 01:25:00,65.4,63.0,30.01,ESE,116,0.0,0.0,92,0.00,,,0.32,weatherlink.com 1.10,2013-04-02 05:25:00,
2013-04-02 01:40:00,65.2,63.0,30.00,East,91,0.0,0.0,92,0.00,,,0.32,weatherlink.com 1.10,2013-04-02 05:40:00,
2013-04-02 01:55:00,65.1,63.0,30.00,East,98,0.0,1.0,94,0.00,,,0.32,weatherlink.com 1.10,2013-04-02 05:55:00,
2013-04-02 02:10:00,64.9,63.0,30.00,ESE,105,0.0,0.0,94,0.00,,,0.32,weatherlink.com 1.10,2013-04-02 06:10:00,
2013-04-02 02:25:00,65.2,64.0,30.00,SSW,200,0.0,1.0,95,0.00,,,0.32,weatherlink.com 1.10,2013-04-02 06:25:00,
2013-04-02 02:40:00,65.2,64.0,29.99,East,81,0.0,1.0,96,0.00,,,0.32,weatherlink.com 1.10,2013-04-02 06:40:00,
2013-04-02 02:55:00,64.9,64.0,29.99,East,88,0.0,0.0,95,0.00,,,0.32,weatherlink.com 1.10,2013-04-02 06:55:00,
2013-04-02 03:10:00,63.8,62.0,29.98,East,88,0.0,0.0,95,0.00,,,0.32,weatherlink.com 1.10,2013-04-02 07:10:00,
2013-04-02 03:25:00,63.5,62.0,29.98,East,88,0.0,0.0,96,0.00,,,0.32,weatherlink.com 1.10,2013-04-02 07:25:00,
2013-04-02 03:40:00,63.4,62.0,29.98,ESE,118,0.0,0.0,96,0.00,,,0.32,weatherlink.com 1.10,2013-04-02 07:40:00,
2013-04-02 03:55:00,63.1,62.0,29.98,ESE,119,0.0,0.0,97,0.00,,,0.32,weatherlink.com 1.10,2013-04-02 07:55:00,
2013-04-02 04:10:00,63.0,62.0,29.98,ESE,119,0.0,0.0,96,0.00,,,0.32,weatherlink.com 1.10,2013-04-02 08:10:00,
2013-04-02 04:25:00,63.4,63.0,29.97,ESE,119,0.0,0.0,97,0.00,,,0.32,weatherlink.com 1.10,2013-04-02 08:25:00,
2013-04-02 04:40:00,63.6,63.0,29.97,East,91,0.0,0.0,97,0.00,,,0.32,weatherlink.com 1.10,2013-04-02 08:40:00,
2013-04-02 04:55:00,63.9,63.0,29.98,East,91,0.0,0.0,97,0.00,,,0.32,weatherlink.com 1.10,2013-04-02 08:55:00,
2013-04-02 05:10:00,63.7,63.0,29.98,East,90,0.0,0.0,98,0.00,,,0.32,weatherlink.com 1.10,2013-04-02 09:10:00,
2013-04-02 05:25:00,63.3,63.0,29.98,East,91,0.0,0.0,97,0.00,,,0.32,weatherlink.com 1.10,2013-04-02 09:25:00,
2013-04-02 05:40:00,63.2,63.0,29.99,East,91,0.0,0.0,98,0.00,,,0.32,weatherlink.com 1.10,2013-04-02 09:40:00,
2013-04-02 05:55:00,63.2,63.0,29.99,East,91,0.0,0.0,98,0.00,,,0.32,weatherlink.com 1.10,2013-04-02 09:55:00,
2013-04-02 06:10:00,64.9,65.0,30.00,WNW,297,1.0,2.0,99,0.00,,,0.32,weatherlink.com 1.10,2013-04-02 10:10:00,
2013-04-02 06:25:00,66.1,66.0,30.00,North,356,0.0,2.0,98,0.00,,,0.32,weatherlink.com 1.10,2013-04-02 10:25:00,
2013-04-02 06:40:00,66.3,66.0,30.00,NW,306,0.0,3.0,98,0.00,,,0.32,weatherlink.com 1.10,2013-04-02 10:40:00,
2013-04-02 06:55:00,66.3,66.0,30.00,WNW,295,0.0,1.0,98,0.00,,,0.32,weatherlink.com 1.10,2013-04-02 10:55:00,
2013-04-02 07:10:00,66.4,66.0,30.01,WNW,296,0.0,1.0,98,0.00,,,0.32,weatherlink.com 1.10,2013-04-02 11:10:00,
2013-04-02 07:25:00,66.1,66.0,30.02,NW,304,0.0,2.0,98,0.00,,,0.32,weatherlink.com 1.10,2013-04-02 11:25:00,
2013-04-02 07:40:00,65.6,65.0,30.02,WNW,295,0.0,3.0,98,0.00,,,0.32,weatherlink.com 1.10,2013-04-02 11:40:00,
2013-04-02 07:55:00,65.7,65.0,30.03,East,86,0.0,2.0,98,0.00,,,0.32,weatherlink.com 1.10,2013-04-02 11:55:00,
2013-04-02 08:10:00,65.9,65.0,30.04,East,101,0.0,1.0,98,0.00,,,0.32,weatherlink.com 1.10,2013-04-02 12:10:00,
2013-04-02 08:25:00,65.8,65.0,30.05,North,356,0.0,3.0,98,0.00,,,0.32,weatherlink.com 1.10,2013-04-02 12:25:00,
2013-04-02 08:40:00,66.0,66.0,30.05,NW,315,0.0,2.0,98,0.00,,,0.32,weatherlink.com 1.10,2013-04-02 12:40:00,
2013-04-02 08:55:00,66.4,66.0,30.06,North,358,0.0,2.0,98,0.00,,,0.32,weatherlink.com 1.10,2013-04-02 12:55:00,
2013-04-02 09:10:00,66.9,66.0,30.06,NNW,337,1.0,3.0,98,0.00,,,0.32,weatherlink.com 1.10,2013-04-02 13:10:00,
2013-04-02 09:25:00,67.4,67.0,30.06,NNE,19,0.0,5.0,98,0.00,,,0.32,weatherlink.com 1.10,2013-04-02 13:25:00,
2013-04-02 09:40:00,68.6,68.0,30.06,North,1,0.0,4.0,98,0.00,,,0.32,weatherlink.com 1.10,2013-04-02 13:40:00,
2013-04-02 09:55:00,69.7,69.0,30.06,North,351,0.0,2.0,96,0.00,,,0.32,weatherlink.com 1.10,2013-04-02 13:55:00,
2013-04-02 10:10:00,71.2,69.0,30.06,WNW,293,0.0,5.0,94,0.00,,,0.32,weatherlink.com 1.10,2013-04-02 14:10:00,
2013-04-02 10:25:00,74.1,69.0,30.06,East,85,2.0,4.0,84,0.00,,,0.32,weatherlink.com 1.10,2013-04-02 14:25:00,
2013-04-02 10:40:00,75.7,68.0,30.06,NNE,27,1.0,3.0,78,0.00,,,0.32,weatherlink.com 1.10,2013-04-02 14:40:00,
2013-04-02 10:55:00,76.6,68.0,30.06,NE,42,0.0,5.0,75,0.00,,,0.32,weatherlink.com 1.10,2013-04-02 14:55:00,
2013-04-02 11:10:00,77.3,68.0,30.06,NE,47,0.0,4.0,72,0.00,,,0.32,weatherlink.com 1.10,2013-04-02 15:10:00,
2013-04-02 11:25:00,78.8,69.0,30.06,NNE,13,0.0,4.0,72,0.00,,,0.32,weatherlink.com 1.10,2013-04-02 15:25:00,
2013-04-02 11:40:00,79.6,69.0,30.06,ESE,108,1.0,8.0,69,0.00,,,0.32,weatherlink.com 1.10,2013-04-02 15:40:00,
2013-04-02 11:55:00,80.3,68.0,30.06,North,6,1.0,3.0,67,0.00,,,0.32,weatherlink.com 1.10,2013-04-02 15:55:00,
2013-04-02 12:10:00,80.7,68.0,30.06,East,100,1.0,4.0,65,0.00,,,0.00,weatherlink.com 1.10,2013-04-02 16:10:00,
2013-04-02 12:25:00,81.6,67.0,30.06,ENE,72,0.0,2.0,61,0.00,,,0.00,weatherlink.com 1.10,2013-04-02 16:25:00,
2013-04-02 12:40:00,82.0,69.0,30.06,ESE,110,1.0,5.0,65,0.00,,,0.00,weatherlink.com 1.10,2013-04-02 16:40:00,
2013-04-02 12:55:00,83.1,68.0,30.05,ENE,60,1.0,2.0,61,0.00,,,0.00,weatherlink.com 1.10,2013-04-02 16:55:00,
2013-04-02 13:11:00,82.5,69.0,30.05,WNW,295,2.0,2.0,63,0.00,,,0.00,weatherlink.com 1.10,2013-04-02 17:11:00,
2013-04-02 13:26:00,84.7,68.0,30.03,ENE,72,0.0,3.0,58,0.00,,,0.00,weatherlink.com 1.10,2013-04-02 17:26:00,
2013-04-02 13:41:00,82.6,67.0,30.03,NE,40,0.0,5.0,60,0.00,,,0.00,weatherlink.com 1.10,2013-04-02 17:41:00,
2013-04-02 14:11:00,84.7,67.0,30.02,WNW,302,2.0,4.0,55,0.00,,,0.00,weatherlink.com 1.10,2013-04-02 18:11:00,
2013-04-02 14:26:00,85.4,66.0,30.02,NNE,13,0.0,6.0,52,0.00,,,0.00,weatherlink.com 1.10,2013-04-02 18:26:00,
2013-04-02 14:56:00,84.8,66.0,30.01,NW,319,1.0,7.0,53,0.00,,,0.00,weatherlink.com 1.10,2013-04-02 18:56:00,
2013-04-02 15:11:00,87.0,65.0,30.00,ENE,72,1.0,4.0,48,0.00,,,0.00,weatherlink.com 1.10,2013-04-02 19:11:00,
2013-04-02 15:26:00,83.9,67.0,30.00,East,93,4.0,4.0,58,0.00,,,0.00,weatherlink.com 1.10,2013-04-02 19:26:00,
2013-04-02 15:56:00,83.5,69.0,29.99,East,86,0.0,5.0,61,0.00,,,0.00,weatherlink.com 1.10,2013-04-02 19:56:00,
2013-04-02 16:11:00,81.7,67.0,29.99,ENE,78,3.0,5.0,62,0.00,,,0.00,weatherlink.com 1.10,2013-04-02 20:11:00,
2013-04-02 16:41:00,82.3,67.0,29.99,ESE,104,2.0,6.0,60,0.00,,,0.00,weatherlink.com 1.10,2013-04-02 20:41:00,
2013-04-02 16:56:00,81.8,66.0,29.99,ESE,121,3.0,6.0,60,0.00,,,0.00,weatherlink.com 1.10,2013-04-02 20:56:00,
2013-04-02 17:11:00,82.0,67.0,29.99,East,101,2.0,7.0,60,0.00,,,0.00,weatherlink.com 1.10,2013-04-02 21:11:00,
2013-04-02 17:26:00,81.4,67.0,29.99,East,88,1.0,7.0,62,0.00,,,0.00,weatherlink.com 1.10,2013-04-02 21:26:00,
2013-04-02 17:41:00,80.4,67.0,29.99,East,94,1.0,10.0,63,0.00,,,0.00,weatherlink.com 1.10,2013-04-02 21:41:00,
2013-04-02 17:56:00,79.9,67.0,30.00,SSE,150,4.0,10.0,64,0.00,,,0.00,weatherlink.com 1.10,2013-04-02 21:56:00,
2013-04-02 18:11:00,79.6,67.0,30.00,East,95,2.0,7.0,65,0.00,,,0.00,weatherlink.com 1.10,2013-04-02 22:11:00,
2013-04-02 18:26:00,79.3,67.0,30.00,East,91,5.0,6.0,66,0.00,,,0.00,weatherlink.com 1.10,2013-04-02 22:26:00,
2013-04-02 18:56:00,78.0,66.0,30.00,ENE,61,3.0,7.0,67,0.00,,,0.00,weatherlink.com 1.10,2013-04-02 22:56:00,
2013-04-02 19:11:00,77.3,66.0,30.00,East,84,6.0,7.0,69,0.00,,,0.00,weatherlink.com 1.10,2013-04-02 23:11:00,
2013-04-02 19:26:00,76.5,66.0,30.00,East,89,2.0,8.0,71,0.00,,,0.00,weatherlink.com 1.10,2013-04-02 23:26:00,
2013-04-02 19:42:00,75.8,67.0,30.01,East,91,5.0,7.0,73,0.00,,,0.00,weatherlink.com 1.10,2013-04-02 23:42:00,
2013-04-02 19:56:00,75.4,67.0,30.01,ESE,110,1.0,4.0,75,0.00,,,0.00,weatherlink.com 1.10,2013-04-02 23:56:00,
2013-04-02 20:11:00,75.1,67.0,30.01,ENE,62,1.0,5.0,76,0.00,,,0.00,weatherlink.com 1.10,2013-04-03 00:11:00,
2013-04-02 20:27:00,74.9,67.0,30.02,East,91,2.0,5.0,77,0.00,,,0.00,weatherlink.com 1.10,2013-04-03 00:27:00,
2013-04-02 20:42:00,74.7,67.0,30.02,ENE,76,0.0,2.0,77,0.00,,,0.00,weatherlink.com 1.10,2013-04-03 00:42:00,
2013-04-02 20:57:00,74.3,67.0,30.03,East,98,2.0,2.0,79,0.00,,,0.00,weatherlink.com 1.10,2013-04-03 00:57:00,
2013-04-02 21:12:00,74.0,67.0,30.03,ENE,71,0.0,2.0,79,0.00,,,0.00,weatherlink.com 1.10,2013-04-03 01:12:00,
2013-04-02 21:42:00,73.7,68.0,30.04,ESE,103,0.0,3.0,81,0.00,,,0.00,weatherlink.com 1.10,2013-04-03 01:42:00,
2013-04-02 21:57:00,73.6,67.0,30.04,ESE,107,2.0,3.0,81,0.00,,,0.00,weatherlink.com 1.10,2013-04-03 01:57:00,
2013-04-02 22:12:00,73.6,68.0,30.05,SE,125,0.0,3.0,82,0.00,,,0.00,weatherlink.com 1.10,2013-04-03 02:12:00,
2013-04-02 22:27:00,73.3,68.0,30.05,East,86,2.0,3.0,83,0.00,,,0.00,weatherlink.com 1.10,2013-04-03 02:27:00,
2013-04-02 22:42:00,73.2,68.0,30.05,ESE,117,1.0,3.0,83,0.00,,,0.00,weatherlink.com 1.10,2013-04-03 02:42:00,
2013-04-02 23:12:00,73.3,68.0,30.04,ESE,118,1.0,4.0,83,0.00,,,0.00,weatherlink.com 1.10,2013-04-03 03:12:00,
2013-04-02 23:27:00,72.9,68.0,30.05,East,101,0.0,2.0,84,0.00,,,0.00,weatherlink.com 1.10,2013-04-03 03:27:00,
2013-04-02 23:42:00,72.7,68.0,30.05,ESE,114,0.0,1.0,84,0.00,,,0.00,weatherlink.com 1.10,2013-04-03 03:42:00,
2013-04-02 23:57:00,72.4,68.0,30.05,SE,136,0.0,2.0,85,0.00,,,0.00,weatherlink.com 1.10,2013-04-03 03:57:00,